createdAt,value
2023-02-11T00:01:08.121Z,25.45
2023-02-11T00:03:35.461Z,23.38
2023-02-11T00:06:05.078Z,22.90
2023-02-11T00:08:31.928Z,24.08
2023-02-11T00:10:58.693Z,25.05
2023-02-11T00:13:26.240Z,25.45
2023-02-11T00:15:54.807Z,23.13
2023-02-11T00:18:21.481Z,23.65
2023-02-11T00:20:48.211Z,23.45
2023-02-11T00:23:15.815Z,23.77
2023-02-11T00:25:45.041Z,22.55
2023-02-11T00:28:12.725Z,22.10
2023-02-11T00:30:39.807Z,24.80
2023-02-11T00:33:06.449Z,24.50
2023-02-11T00:35:33.093Z,28.33
2023-02-11T00:37:59.919Z,28.65
2023-02-11T00:40:26.675Z,25.70
2023-02-11T00:42:53.365Z,26.58
2023-02-11T00:45:21.367Z,30.88
2023-02-11T00:47:48.296Z,30.77
2023-02-11T00:50:15.004Z,35.10
2023-02-11T00:52:41.939Z,33.95
2023-02-11T00:55:08.914Z,32.40
2023-02-11T00:57:35.604Z,31.13
2023-02-11T01:00:02.867Z,31.50
2023-02-11T01:02:29.490Z,32.45
2023-02-11T01:04:56.426Z,30.23
2023-02-11T01:07:23.554Z,32.30
2023-02-11T01:09:50.193Z,33.13
2023-02-11T01:12:16.829Z,28.95
2023-02-11T01:14:43.831Z,28.58
2023-02-11T01:17:10.481Z,30.15
2023-02-11T01:19:38.273Z,30.73
2023-02-11T01:22:05.690Z,29.80
2023-02-11T01:24:32.818Z,31.30
2023-02-11T01:26:59.409Z,29.88
2023-02-11T01:29:26.462Z,30.17
2023-02-11T01:31:53.452Z,29.88
2023-02-11T01:34:20.105Z,29.35
2023-02-11T01:36:46.998Z,29.42
2023-02-11T01:39:13.730Z,27.70
2023-02-11T01:41:40.364Z,27.17
2023-02-11T01:44:34.471Z,26.38
2023-02-11T01:47:04.766Z,25.95
2023-02-11T01:49:38.432Z,25.90
2023-02-11T01:55:19.540Z,22.10
2023-02-11T01:57:51.403Z,25.58
2023-02-11T02:00:30.513Z,27.08
2023-02-11T02:03:08.322Z,28.27
2023-02-11T02:06:00.345Z,28.25
2023-02-11T02:08:42.367Z,28.95
2023-02-11T02:11:09.791Z,28.95
2023-02-11T02:13:36.828Z,31.90
2023-02-11T02:16:12.185Z,30.63
2023-02-11T02:19:14.286Z,33.97
2023-02-11T02:22:19.890Z,32.00
2023-02-11T02:25:07.549Z,34.58
2023-02-11T02:28:13.322Z,32.22
2023-02-11T02:30:58.331Z,31.73
2023-02-11T02:33:41.625Z,29.90
2023-02-11T02:36:18.377Z,28.77
2023-02-11T02:38:57.003Z,28.63
2023-02-11T02:41:28.614Z,28.20
2023-02-11T02:43:55.792Z,29.02
2023-02-11T02:46:28.427Z,27.45
2023-02-11T02:48:56.016Z,27.40
2023-02-11T02:51:55.248Z,25.80
2023-02-11T02:54:43.780Z,25.60
2023-02-11T02:57:33.226Z,28.75
2023-02-11T03:00:27.451Z,22.90
2023-02-11T03:05:30.567Z,23.38
2023-02-11T03:08:09.363Z,24.85
2023-02-11T03:10:40.371Z,23.77
2023-02-11T03:13:13.073Z,24.70
2023-02-11T03:15:44.407Z,26.45
2023-02-11T03:18:16.389Z,27.58
2023-02-11T03:20:47.105Z,25.58
2023-02-11T03:23:18.256Z,24.45
2023-02-11T03:25:50.766Z,26.17
2023-02-11T03:28:32.645Z,24.45
2023-02-11T03:31:20.671Z,26.38
2023-02-11T03:34:19.415Z,19.90
2023-02-11T03:37:10.457Z,22.05
2023-02-11T03:39:41.712Z,22.52
2023-02-11T03:42:11.162Z,21.35
2023-02-11T03:44:44.050Z,22.63
2023-02-11T03:47:15.538Z,22.98
2023-02-11T03:49:45.749Z,25.42
2023-02-11T03:52:13.991Z,25.42
2023-02-11T03:54:43.440Z,23.52
2023-02-11T03:57:10.354Z,23.48
2023-02-11T03:59:54.791Z,21.90
2023-02-11T04:02:24.354Z,24.08
2023-02-11T04:04:51.129Z,22.92
2023-02-11T04:07:18.237Z,25.13
2023-02-11T04:09:45.167Z,25.17
2023-02-11T04:12:14.223Z,25.30
2023-02-11T04:14:40.804Z,23.73
2023-02-11T04:17:07.789Z,23.23
2023-02-11T04:19:37.112Z,25.17
2023-02-11T04:22:09.132Z,24.83
2023-02-11T04:24:35.942Z,23.38
2023-02-11T04:27:02.732Z,22.70
2023-02-11T04:29:29.652Z,23.15
2023-02-11T04:31:56.440Z,26.25
2023-02-11T04:34:24.541Z,24.25
2023-02-11T04:36:51.799Z,25.70
2023-02-11T04:39:18.668Z,25.08
2023-02-11T04:41:45.338Z,26.13
2023-02-11T04:44:12.514Z,24.58
2023-02-11T04:46:39.288Z,28.17
2023-02-11T04:49:05.940Z,24.83
2023-02-11T04:51:32.738Z,25.95
2023-02-11T04:53:59.483Z,28.80
2023-02-11T04:56:26.068Z,24.17
2023-02-11T04:58:52.949Z,25.77
2023-02-11T05:01:19.773Z,23.70
2023-02-11T05:03:46.461Z,24.17
2023-02-11T05:06:13.265Z,24.80
2023-02-11T05:08:40.880Z,24.38
2023-02-11T05:11:14.632Z,25.48
2023-02-11T05:13:41.250Z,24.90
2023-02-11T05:16:08.106Z,24.50
2023-02-11T05:18:37.579Z,26.42
2023-02-11T05:21:16.323Z,25.75
2023-02-11T05:23:43.635Z,26.38
2023-02-11T05:26:10.909Z,26.90
2023-02-11T05:28:38.196Z,25.50
2023-02-11T05:31:09.921Z,24.90
2023-02-11T05:33:36.642Z,25.17
2023-02-11T05:36:06.869Z,24.85
2023-02-11T05:38:33.678Z,28.05
2023-02-11T05:41:00.963Z,27.33
2023-02-11T05:43:27.746Z,27.88
2023-02-11T05:45:55.101Z,28.95
2023-02-11T05:48:21.769Z,28.25
2023-02-11T05:50:48.719Z,27.85
2023-02-11T05:53:15.883Z,28.42
2023-02-11T05:55:42.757Z,29.10
2023-02-11T05:58:10.139Z,25.98
2023-02-11T06:00:37.074Z,27.15
2023-02-11T06:03:04.623Z,31.40
2023-02-11T06:05:31.901Z,34.83
2023-02-11T06:07:58.799Z,32.72
2023-02-11T06:10:25.914Z,33.40
2023-02-11T06:12:52.748Z,33.90
2023-02-11T06:15:19.615Z,35.72
2023-02-11T06:17:46.257Z,37.10
2023-02-11T06:20:12.997Z,34.42
2023-02-11T06:22:40.016Z,35.38
2023-02-11T06:25:07.025Z,41.13
2023-02-11T06:27:33.948Z,37.42
2023-02-11T06:30:00.609Z,36.13
2023-02-11T06:32:43.930Z,35.40
2023-02-11T06:35:12.759Z,40.45
2023-02-11T06:37:40.640Z,39.17
2023-02-11T06:40:07.509Z,40.30
2023-02-11T06:42:36.331Z,43.35
2023-02-11T06:45:06.172Z,49.58
2023-02-11T06:47:33.014Z,48.65
2023-02-11T06:50:00.328Z,50.45
2023-02-11T06:52:26.901Z,51.65
2023-02-11T06:54:53.526Z,53.03
2023-02-11T06:57:20.576Z,51.42
2023-02-11T06:59:47.198Z,52.25
2023-02-11T07:02:13.904Z,54.22
2023-02-11T07:04:40.957Z,54.58
2023-02-11T07:07:07.719Z,59.92
2023-02-11T07:09:34.337Z,57.58
2023-02-11T07:12:01.152Z,58.17
2023-02-11T07:14:27.760Z,52.20
2023-02-11T07:16:54.410Z,56.17
2023-02-11T07:19:21.211Z,54.90
2023-02-11T07:21:48.786Z,58.15
2023-02-11T07:24:15.486Z,53.03
2023-02-11T07:26:42.576Z,52.95
2023-02-11T07:29:10.000Z,54.30
2023-02-11T07:31:36.753Z,51.40
2023-02-11T07:34:04.215Z,50.95
2023-02-11T07:36:32.308Z,48.65
2023-02-11T07:39:00.131Z,47.88
2023-02-11T07:41:27.899Z,44.38
2023-02-11T07:43:54.801Z,40.03
2023-02-11T07:46:26.749Z,39.20
2023-02-11T07:48:54.234Z,40.35
2023-02-11T07:51:27.120Z,40.25
2023-02-11T07:53:55.885Z,40.10
2023-02-11T07:56:23.425Z,38.38
2023-02-11T07:58:50.706Z,39.60
2023-02-11T08:01:25.455Z,41.92
2023-02-11T08:03:52.728Z,38.50
2023-02-11T08:06:21.180Z,45.47
2023-02-11T08:08:48.270Z,43.60
2023-02-11T08:11:22.982Z,40.42
2023-02-11T08:13:50.404Z,40.20
2023-02-11T08:16:22.973Z,37.00
2023-02-11T08:18:51.058Z,36.85
2023-02-11T08:21:18.691Z,35.92
2023-02-11T08:23:46.225Z,36.83
2023-02-11T08:26:15.927Z,35.80
2023-02-11T08:28:44.779Z,33.50
2023-02-11T08:31:18.097Z,32.17
2023-02-11T08:33:45.118Z,32.75
2023-02-11T08:36:17.347Z,33.20
2023-02-11T08:38:44.803Z,30.13
2023-02-11T08:41:11.769Z,25.70
2023-02-11T08:43:42.001Z,24.48
2023-02-11T08:46:10.122Z,25.23
2023-02-11T08:48:36.782Z,24.95
2023-02-11T08:51:13.779Z,24.73
2023-02-11T08:53:40.636Z,26.58
2023-02-11T08:56:07.690Z,25.77
2023-02-11T08:58:34.692Z,26.70
2023-02-11T09:01:01.315Z,25.50
2023-02-11T09:03:28.090Z,22.73
2023-02-11T09:05:55.381Z,25.30
2023-02-11T09:08:22.031Z,24.60
2023-02-11T09:10:49.179Z,24.48
2023-02-11T09:13:17.461Z,22.83
2023-02-11T09:15:46.963Z,24.92
2023-02-11T09:18:13.992Z,25.58
2023-02-11T09:20:40.945Z,24.70
2023-02-11T09:23:07.729Z,24.65
2023-02-11T09:25:34.331Z,25.35
2023-02-11T09:28:01.466Z,25.35
2023-02-11T09:30:28.253Z,26.02
2023-02-11T09:32:54.960Z,26.27
2023-02-11T09:35:21.990Z,26.08
2023-02-11T09:37:48.698Z,26.67
2023-02-11T09:40:16.381Z,24.92
2023-02-11T09:43:09.361Z,25.35
2023-02-11T09:45:36.181Z,24.77
2023-02-11T09:48:14.902Z,25.38
2023-02-11T09:50:46.733Z,23.90
2023-02-11T09:53:13.456Z,25.88
2023-02-11T09:55:43.441Z,22.60
2023-02-11T09:58:21.367Z,22.02
2023-02-11T10:00:58.718Z,22.73
2023-02-11T10:04:01.250Z,22.58
2023-02-11T10:06:49.450Z,23.42
2023-02-11T10:09:26.016Z,24.65
2023-02-11T10:12:16.621Z,22.13
2023-02-11T10:15:13.060Z,21.92
2023-02-11T10:17:58.465Z,21.58
2023-02-11T10:20:28.010Z,21.30
2023-02-11T10:23:38.110Z,20.15
2023-02-11T10:26:16.196Z,20.85
2023-02-11T10:28:46.546Z,19.52
2023-02-11T10:31:19.339Z,21.08
2023-02-11T10:34:09.283Z,22.15
2023-02-11T10:36:38.994Z,22.33
2023-02-11T10:39:19.881Z,21.80
2023-02-11T10:41:50.916Z,21.80
2023-02-11T10:44:27.890Z,20.08
2023-02-11T10:46:56.473Z,22.30
2023-02-11T10:49:44.358Z,21.30
2023-02-11T10:52:14.067Z,25.20
2023-02-11T10:54:40.755Z,29.20
2023-02-11T10:57:07.964Z,30.00
2023-02-11T10:59:40.461Z,30.13
2023-02-11T11:02:34.799Z,29.58
2023-02-11T11:05:20.177Z,29.13
2023-02-11T11:08:13.345Z,30.15
2023-02-11T11:10:44.407Z,28.75
2023-02-11T11:13:27.083Z,28.30
2023-02-11T11:16:12.557Z,27.35
2023-02-11T11:18:41.029Z,24.70
2023-02-11T11:21:17.167Z,25.77
2023-02-11T11:23:56.510Z,26.45
2023-02-11T11:26:26.103Z,25.00
2023-02-11T11:28:54.872Z,23.58
2023-02-11T11:31:27.306Z,22.15
2023-02-11T11:33:58.152Z,24.95
2023-02-11T11:36:39.877Z,24.23
2023-02-11T11:39:21.704Z,24.95
2023-02-11T11:41:59.406Z,22.75
2023-02-11T11:44:33.547Z,22.40
2023-02-11T11:50:10.963Z,19.23
2023-02-11T11:53:01.697Z,19.90
2023-02-11T11:55:48.716Z,19.70
2023-02-11T11:58:19.068Z,19.63
2023-02-11T12:01:03.910Z,19.08
2023-02-11T12:03:43.905Z,19.80
2023-02-11T12:06:32.435Z,18.00
2023-02-11T12:09:12.599Z,17.20
2023-02-11T12:12:11.859Z,17.38
2023-02-11T12:14:49.041Z,17.70
2023-02-11T12:18:20.635Z,16.90
2023-02-11T12:21:06.013Z,16.77
2023-02-11T12:23:47.260Z,16.38
2023-02-11T12:26:17.114Z,15.65
2023-02-11T12:29:17.561Z,16.25
2023-02-11T12:32:08.481Z,16.48
2023-02-11T12:34:53.743Z,16.42
2023-02-11T12:37:33.287Z,16.60
2023-02-11T12:40:25.429Z,14.23
2023-02-11T12:43:17.988Z,14.05
2023-02-11T12:46:01.215Z,13.18
2023-02-11T12:49:02.685Z,15.30
2023-02-11T12:52:03.617Z,14.40
2023-02-11T12:54:37.532Z,18.48
2023-02-11T12:57:11.972Z,12.55
2023-02-11T12:59:52.114Z,28.58
2023-02-11T13:02:43.985Z,22.13
2023-02-11T13:05:28.723Z,15.88
2023-02-11T13:08:13.460Z,13.57
2023-02-11T13:10:48.232Z,13.55
2023-02-11T13:13:33.876Z,13.45
2023-02-11T13:16:08.197Z,13.93
2023-02-11T13:18:53.805Z,15.38
2023-02-11T13:21:35.131Z,16.17
2023-02-11T13:24:22.403Z,14.30
2023-02-11T13:27:15.388Z,13.93
2023-02-11T13:30:14.351Z,14.68
2023-02-11T13:32:56.313Z,14.05
2023-02-11T13:35:37.457Z,15.60
2023-02-11T13:38:24.824Z,15.30
2023-02-11T13:41:18.160Z,15.65
2023-02-11T13:43:57.348Z,15.75
2023-02-11T13:46:27.578Z,14.68
2023-02-11T13:48:54.931Z,13.63
2023-02-11T13:51:39.345Z,13.93
2023-02-11T13:56:44.226Z,14.38
2023-02-11T13:59:26.631Z,14.50
2023-02-11T14:02:12.243Z,13.90
2023-02-11T14:05:20.345Z,14.20
2023-02-11T14:08:30.580Z,14.55
2023-02-11T14:11:02.876Z,15.40
2023-02-11T14:13:33.489Z,14.75
2023-02-11T14:16:36.501Z,13.40
2023-02-11T14:19:05.278Z,14.50
2023-02-11T14:21:38.134Z,14.80
2023-02-11T14:24:05.052Z,14.85
2023-02-11T14:26:50.478Z,15.55
2023-02-11T14:29:42.079Z,17.27
2023-02-11T14:32:48.326Z,17.60
2023-02-11T14:35:18.430Z,19.90
2023-02-11T14:38:19.558Z,22.10
2023-02-11T14:40:46.176Z,22.92
2023-02-11T14:43:29.114Z,22.73
2023-02-11T14:45:58.472Z,23.77
2023-02-11T14:48:32.098Z,22.30
2023-02-11T14:51:20.947Z,24.45
2023-02-11T14:53:51.458Z,23.33
2023-02-11T14:56:26.395Z,23.48
2023-02-11T14:58:54.619Z,24.10
2023-02-11T15:01:36.478Z,22.52
2023-02-11T15:04:05.759Z,23.92
2023-02-11T15:06:41.250Z,22.08
2023-02-11T15:09:41.967Z,22.00
2023-02-11T15:12:23.660Z,22.80
2023-02-11T15:14:56.767Z,23.65
2023-02-11T15:17:27.366Z,21.85
2023-02-11T15:19:57.126Z,22.80
2023-02-11T15:22:33.319Z,22.75
2023-02-11T15:25:11.017Z,23.50
2023-02-11T15:27:43.296Z,24.30
2023-02-11T15:30:22.035Z,24.92
2023-02-11T15:32:58.314Z,24.38
2023-02-11T15:35:28.662Z,23.65
2023-02-11T15:37:57.526Z,25.17
2023-02-11T15:40:32.475Z,25.25
2023-02-11T15:43:07.647Z,23.52
2023-02-11T15:45:41.893Z,22.02
2023-02-11T15:51:08.611Z,22.80
2023-02-11T15:53:40.706Z,22.40
2023-02-11T15:56:13.290Z,24.05
2023-02-11T15:58:42.426Z,26.92
2023-02-11T16:01:09.724Z,27.83
2023-02-11T16:03:36.827Z,26.98
2023-02-11T16:06:16.961Z,28.58
2023-02-11T16:08:43.765Z,37.03
2023-02-11T16:11:26.826Z,32.67
2023-02-11T16:13:53.955Z,29.98
2023-02-11T16:16:27.371Z,24.77
2023-02-11T16:19:04.787Z,26.98
2023-02-11T16:21:36.341Z,27.77
2023-02-11T16:24:04.199Z,25.63
2023-02-11T16:26:43.245Z,25.83
2023-02-11T16:29:22.041Z,25.80
2023-02-11T16:31:50.504Z,26.48
2023-02-11T16:34:21.020Z,25.85
2023-02-11T16:36:48.996Z,28.48
2023-02-11T16:39:16.953Z,26.52
2023-02-11T16:41:44.371Z,27.92
2023-02-11T16:44:11.358Z,27.65
2023-02-11T16:46:38.329Z,28.25
2023-02-11T16:49:17.704Z,29.48
2023-02-11T16:51:45.423Z,28.58
2023-02-11T16:54:16.733Z,27.42
2023-02-11T16:56:44.272Z,27.00
2023-02-11T16:59:11.617Z,28.25
2023-02-11T17:01:40.492Z,28.35
2023-02-11T17:04:11.256Z,31.45
2023-02-11T17:06:37.941Z,27.80
2023-02-11T17:09:06.758Z,33.30
2023-02-11T17:11:33.707Z,31.02
2023-02-11T17:14:00.320Z,34.25
2023-02-11T17:16:29.819Z,33.83
2023-02-11T17:18:56.646Z,34.47
2023-02-11T17:21:27.585Z,35.97
2023-02-11T17:23:55.347Z,32.33
2023-02-11T17:26:22.322Z,30.52
2023-02-11T17:28:49.084Z,28.55
2023-02-11T17:31:15.869Z,25.52
2023-02-11T17:33:43.514Z,28.75
2023-02-11T17:36:10.658Z,29.80
2023-02-11T17:38:37.996Z,30.30
2023-02-11T17:41:05.366Z,30.10
2023-02-11T17:43:32.376Z,32.95
2023-02-11T17:45:59.175Z,31.75
2023-02-11T17:48:26.169Z,30.75
2023-02-11T17:50:52.839Z,29.80
2023-02-11T17:53:19.461Z,27.77
2023-02-11T17:55:46.261Z,28.48
2023-02-11T17:58:13.034Z,29.27
2023-02-11T18:00:40.025Z,29.02
2023-02-11T18:03:06.894Z,28.65
2023-02-11T18:05:35.487Z,27.92
2023-02-11T18:08:03.407Z,26.95
2023-02-11T18:10:30.274Z,26.52
2023-02-11T18:12:56.937Z,24.08
2023-02-11T18:15:23.564Z,22.45
2023-02-11T18:17:50.487Z,22.55
2023-02-11T18:20:17.400Z,18.90
2023-02-11T18:22:44.338Z,20.85
2023-02-11T18:25:14.755Z,20.48
2023-02-11T18:27:42.033Z,19.30
2023-02-11T18:30:15.580Z,18.90
2023-02-11T18:32:42.957Z,20.63
2023-02-11T18:35:14.784Z,21.00
2023-02-11T18:37:42.968Z,21.42
2023-02-11T18:40:11.142Z,23.85
2023-02-11T18:42:37.855Z,23.30
2023-02-11T18:45:09.727Z,23.13
2023-02-11T18:47:37.916Z,22.10
2023-02-11T18:50:06.609Z,23.63
2023-02-11T18:52:36.944Z,24.67
2023-02-11T18:55:04.240Z,24.38
2023-02-11T18:57:30.942Z,24.40
2023-02-11T18:59:57.749Z,24.23
2023-02-11T19:02:25.133Z,23.02
2023-02-11T19:04:52.339Z,24.98
2023-02-11T19:07:19.145Z,22.88
2023-02-11T19:09:45.775Z,24.20
2023-02-11T19:12:12.566Z,22.52
2023-02-11T19:14:39.537Z,21.40
2023-02-11T19:17:07.970Z,20.70
2023-02-11T19:19:35.704Z,20.17
2023-02-11T19:22:03.639Z,20.20
2023-02-11T19:24:30.769Z,20.10
2023-02-11T19:27:00.167Z,19.38
2023-02-11T19:29:27.572Z,19.75
2023-02-11T19:32:06.006Z,20.47
2023-02-11T19:34:33.730Z,19.88
2023-02-11T19:37:01.853Z,21.08
2023-02-11T19:39:28.563Z,22.52
2023-02-11T19:41:55.393Z,20.92
2023-02-11T19:44:22.284Z,21.38
2023-02-11T19:46:50.250Z,21.70
2023-02-11T19:49:23.199Z,24.02
2023-02-11T19:51:55.464Z,28.02
2023-02-11T19:54:22.560Z,32.95
2023-02-11T19:56:49.397Z,43.72
2023-02-11T19:59:16.225Z,40.22
2023-02-11T20:01:43.119Z,40.58
2023-02-11T20:04:11.361Z,32.78
2023-02-11T20:06:38.291Z,44.85
2023-02-11T20:09:07.801Z,44.67
2023-02-11T20:11:35.764Z,48.10
2023-02-11T20:14:03.726Z,37.13
2023-02-11T20:16:47.032Z,40.17
2023-02-11T20:19:18.485Z,39.40
2023-02-11T20:21:47.728Z,44.67
2023-02-11T20:24:18.106Z,46.67
2023-02-11T20:26:46.966Z,48.25
2023-02-11T20:29:14.272Z,49.92
2023-02-11T20:31:41.699Z,50.90
2023-02-11T20:34:08.938Z,52.67
2023-02-11T20:36:37.608Z,65.53
2023-02-11T20:39:06.084Z,62.10
2023-02-11T20:41:35.779Z,61.67
2023-02-11T20:44:05.632Z,60.33
2023-02-11T20:46:33.598Z,62.78
2023-02-11T20:49:01.370Z,64.72
2023-02-11T20:51:31.037Z,65.43
2023-02-11T20:53:58.323Z,66.75
2023-02-11T20:56:29.099Z,56.05
2023-02-11T20:58:58.077Z,50.22
2023-02-11T21:01:45.889Z,56.20
2023-02-11T21:04:15.383Z,45.85
2023-02-11T21:06:48.118Z,36.42
2023-02-11T21:09:21.221Z,36.08
2023-02-11T21:11:49.562Z,34.67
2023-02-11T21:14:16.134Z,30.17
2023-02-11T21:16:43.338Z,28.58
2023-02-11T21:19:10.173Z,26.75
2023-02-11T21:21:37.724Z,27.98
2023-02-11T21:24:05.460Z,31.50
2023-02-11T21:26:33.775Z,36.15
2023-02-11T21:29:00.355Z,43.85
2023-02-11T21:31:30.532Z,45.33
2023-02-11T21:33:59.668Z,45.30
2023-02-11T21:36:28.566Z,41.67
2023-02-11T21:38:55.190Z,39.30
2023-02-11T21:41:23.331Z,37.60
2023-02-11T21:43:50.737Z,34.72
2023-02-11T21:46:18.351Z,33.45
2023-02-11T21:48:45.817Z,30.92
2023-02-11T21:51:21.578Z,28.63
2023-02-11T21:53:48.669Z,24.10
2023-02-11T21:56:17.500Z,26.10
2023-02-11T21:58:45.196Z,24.25
2023-02-11T22:01:17.998Z,29.15
2023-02-11T22:03:46.196Z,32.45
2023-02-11T22:06:18.877Z,34.03
2023-02-11T22:08:48.290Z,27.83
2023-02-11T22:11:15.526Z,30.80
2023-02-11T22:13:43.229Z,33.10
2023-02-11T22:16:13.464Z,38.53
2023-02-11T22:18:40.802Z,42.63
2023-02-11T22:21:13.213Z,44.33
2023-02-11T22:23:40.284Z,42.28
2023-02-11T22:26:15.801Z,41.22
2023-02-11T22:28:43.649Z,38.65
2023-02-11T22:31:14.076Z,26.85
2023-02-11T22:33:41.520Z,23.65
2023-02-11T22:36:14.085Z,21.88
2023-02-11T22:38:40.704Z,22.48
2023-02-11T22:41:10.012Z,22.63
2023-02-11T22:43:37.628Z,22.30
2023-02-11T22:46:06.580Z,23.38
2023-02-11T22:48:34.636Z,21.77
2023-02-11T22:51:13.385Z,22.92
2023-02-11T22:53:40.610Z,23.13
2023-02-11T22:56:09.820Z,23.92
2023-02-11T22:58:36.690Z,21.27
2023-02-11T23:01:04.846Z,20.60
2023-02-11T23:03:32.037Z,18.80
2023-02-11T23:06:00.135Z,21.13
2023-02-11T23:08:28.697Z,21.33
2023-02-11T23:10:55.600Z,22.08
2023-02-11T23:13:22.234Z,21.58
2023-02-11T23:15:49.173Z,20.90
2023-02-11T23:18:15.777Z,21.55
2023-02-11T23:20:43.861Z,20.63
2023-02-11T23:23:10.780Z,20.92
2023-02-11T23:25:43.520Z,22.85
2023-02-11T23:28:10.998Z,25.95
2023-02-11T23:30:38.144Z,24.27
2023-02-11T23:33:04.770Z,24.15
2023-02-11T23:35:31.606Z,23.30
2023-02-11T23:37:58.355Z,22.45
2023-02-11T23:40:24.956Z,24.10
2023-02-11T23:42:51.849Z,23.55
2023-02-11T23:45:18.943Z,23.48
2023-02-11T23:47:45.832Z,23.00
2023-02-11T23:50:12.542Z,22.60
2023-02-11T23:52:39.597Z,23.63
2023-02-11T23:55:06.905Z,23.80
2023-02-11T23:57:34.331Z,23.08
